Time;durP1;ratioP1;P1;durP2;ratioP2;P2;SDS_P1;SDS_P2;PMS_P1;PMS_P2;Temp;Humidity;BMP_temperature;BMP_pressure;BME280_temperature;BME280_humidity;BME280_pressure;Samples;Min_cycle;Max_cycle;Signal;HPM_P1;HPM_P2
2021/09/01 00:00:24;;;;;;;;;;;;;;;19.58;51.33;96409.34;1048039;28;1276;-53
2021/09/01 00:00:55;;;;;;;;;;;;;;;19.58;51.54;96409.34;1048614;28;1150;-53
2021/09/01 00:01:25;;;;;;;;;;;;;;;19.58;51.39;96409.34;1048758;28;1217;-52
2021/09/01 00:01:56;;;;;;;;;;;;;;;19.58;51.43;96414.63;1045579;28;2213;-53
2021/09/01 00:02:26;;;;;;;;;;;;;;;19.57;51.33;96407.75;1048068;28;1485;-53
2021/09/01 00:02:56;;;;;;;;;;;;;;;19.58;51.47;96409.34;1048677;28;1260;-53
2021/09/01 00:03:26;;;;;;;;;;;;;;;19.58;51.35;96404.88;1048692;28;1276;-55
2021/09/01 00:03:57;;;;;;;;;;;;;;;19.57;51.48;96405.94;1048253;28;1260;-53
2021/09/01 00:04:27;;;;;;;;;;;;;;;19.57;51.50;96411.19;1048558;28;1225;-53
2021/09/01 00:04:57;;;;;;;;;;;;;;;19.57;51.47;96403.31;1048732;28;1244;-54
2021/09/01 00:05:28;;;;;;;;;;;;;;;19.58;51.40;96401.47;1048515;28;1217;-55
2021/09/01 00:05:58;;;;;;;;;;;;;;;19.59;51.47;96405.66;1048536;28;1189;-53
2021/09/01 00:06:28;;;;;;;;;;;;;;;19.58;51.41;96401.47;1048344;28;1253;-53
2021/09/01 00:06:59;;;;;;;;;;;;;;;19.58;51.39;96404.09;1047509;28;2184;-51
2021/09/01 00:07:29;;;;;;;;;;;;;;;19.58;51.47;96396.97;1041203;28;1649;-54
2021/09/01 00:07:59;;;;;;;;;;;;;;;19.59;51.33;96405.66;1047895;28;1197;-55
2021/09/01 00:08:29;;;;;;;;;;;;;;;19.58;51.42;96399.59;1048281;28;1255;-56
2021/09/01 00:09:00;;;;;;;;;;;;;;;19.59;51.40;96403.03;1048381;28;1307;-56
2021/09/01 00:09:30;;;;;;;;;;;;;;;19.59;51.39;96403.03;1048440;28;1217;-52
2021/09/01 00:10:01;;;;;;;;;;;;;;;19.59;51.33;96405.66;1048578;28;1308;-55
2021/09/01 00:10:31;;;;;;;;;;;;;;;19.58;51.47;96402.25;1048521;28;1165;-53
2021/09/01 00:11:02;;;;;;;;;;;;;;;19.57;51.36;96398.03;1056485;28;1565;-51
2021/09/01 00:11:41;;;;;;;;;;;;;;;19.59;51.41;96410.94;1052762;28;1351;-49
2021/09/01 00:12:12;;;;;;;;;;;;;;;19.58;51.39;96404.09;1046160;28;2076;-56
2021/09/01 00:12:43;;;;;;;;;;;;;;;19.58;51.38;96406.72;1046805;28;1246;-54
2021/09/01 00:13:14;;;;;;;;;;;;;;;19.58;51.22;96406.72;1040403;28;1206;-54
2021/09/01 00:13:45;;;;;;;;;;;;;;;19.58;51.28;96410.13;1044015;28;1174;-55
2021/09/01 00:14:35;;;;;;;;;;;;;;;19.58;51.41;96404.09;1045434;28;1264;-52
2021/09/01 00:15:26;;;;;;;;;;;;;;;19.58;51.38;96404.88;1045886;28;1115;-53
2021/09/01 00:16:30;;;;;;;;;;;;;;;19.58;51.38;96415.38;1045123;28;2010;-54
2021/09/01 00:17:06;;;;;;;;;;;;;;;19.57;51.44;96413.00;1047933;28;1969;-55
2021/09/01 00:17:37;;;;;;;;;;;;;;;19.59;51.35;96416.19;1047388;28;2179;-53
2021/09/01 00:18:27;;;;;;;;;;;;;;;19.57;51.28;96411.19;1043336;28;1094;-55
2021/09/01 00:19:17;;;;;;;;;;;;;;;19.58;51.46;96420.66;1047759;28;1081;-53
2021/09/01 00:20:08;;;;;;;;;;;;;;;19.58;51.48;96414.63;1048137;28;967;-52
2021/09/01 00:20:58;;;;;;;;;;;;;;;19.56;51.34;96409.59;1048487;28;1042;-51
2021/09/01 00:21:49;;;;;;;;;;;;;;;19.57;51.30;96413.00;1047238;28;1757;-55
2021/09/01 00:22:19;;;;;;;;;;;;;;;19.58;51.24;96419.88;1047280;28;2076;-52
2021/09/01 00:22:49;;;;;;;;;;;;;;;19.58;51.48;96410.13;1048525;28;1067;-49
2021/09/01 00:23:19;;;;;;;;;;;;;;;19.57;51.54;96408.56;1048291;28;1259;-54
2021/09/01 00:23:50;;;;;;;;;;;;;;;19.58;51.22;96414.63;1048255;28;1067;-52
2021/09/01 00:24:20;;;;;;;;;;;;;;;19.59;51.18;96413.56;1048334;28;1137;-53
2021/09/01 00:24:50;;;;;;;;;;;;;;;19.59;51.46;96410.94;1048559;28;1186;-52
2021/09/01 00:25:21;;;;;;;;;;;;;;;19.58;51.22;96414.63;1053004;28;2045;-52
2021/09/01 00:25:51;;;;;;;;;;;;;;;19.58;51.39;96418.03;1056276;28;1964;-53
2021/09/01 00:26:22;;;;;;;;;;;;;;;19.59;51.36;96410.94;1056511;28;1298;-52
2021/09/01 00:26:52;;;;;;;;;;;;;;;19.59;51.42;96413.56;1052053;28;1469;-52
2021/09/01 00:27:22;;;;;;;;;;;;;;;19.59;51.31;96417.00;1047386;28;2239;-50
2021/09/01 00:27:52;;;;;;;;;;;;;;;19.58;51.40;96420.66;1048281;28;1119;-54
2021/09/01 00:28:23;;;;;;;;;;;;;;;19.58;51.33;96414.63;1043983;28;1130;-52
2021/09/01 00:28:53;;;;;;;;;;;;;;;19.58;51.39;96414.63;1047969;28;1753;-52
2021/09/01 00:29:24;;;;;;;;;;;;;;;19.58;51.26;96412.75;1048250;28;1178;-50
2021/09/01 00:29:54;;;;;;;;;;;;;;;19.58;51.48;96415.38;1044052;28;1135;-52
2021/09/01 00:30:24;;;;;;;;;;;;;;;19.58;51.35;96418.03;1048133;28;1150;-54
2021/09/01 00:30:55;;;;;;;;;;;;;;;19.58;51.46;96410.13;1048077;28;1340;-52
2021/09/01 00:31:25;;;;;;;;;;;;;;;19.59;51.42;96416.19;1048615;28;1198;-51
2021/09/01 00:31:55;;;;;;;;;;;;;;;19.59;51.33;96416.19;1048544;28;1251;-54
2021/09/01 00:32:26;;;;;;;;;;;;;;;19.58;51.42;96418.03;1046978;28;2020;-51
2021/09/01 00:32:56;;;;;;;;;;;;;;;19.59;51.40;96410.94;1047338;28;1735;-52
2021/09/01 00:33:26;;;;;;;;;;;;;;;19.58;51.45;96420.66;1048241;28;1064;-55
2021/09/01 00:33:56;;;;;;;;;;;;;;;19.59;51.38;96416.19;1048271;28;1277;-50
2021/09/01 00:34:27;;;;;;;;;;;;;;;19.58;51.43;96414.63;1048357;28;1240;-55
2021/09/01 00:34:57;;;;;;;;;;;;;;;19.59;51.21;96418.81;1048312;28;1217;-53
2021/09/01 00:35:27;;;;;;;;;;;;;;;19.59;51.42;96413.56;1048597;28;1328;-53
2021/09/01 00:35:58;;;;;;;;;;;;;;;19.59;51.32;96411.72;1048405;28;1173;-55
2021/09/01 00:36:28;;;;;;;;;;;;;;;19.60;51.34;96417.78;1048422;28;1232;-51
2021/09/01 00:36:58;;;;;;;;;;;;;;;19.59;51.34;96416.19;1048292;28;1205;-52
2021/09/01 00:37:28;;;;;;;;;;;;;;;19.58;51.49;96414.63;1046488;28;2218;-49
2021/09/01 00:37:59;;;;;;;;;;;;;;;19.58;51.42;96419.88;1048554;28;1300;-52
2021/09/01 00:38:29;;;;;;;;;;;;;;;19.59;51.53;96417.00;1048373;28;1189;-55
2021/09/01 00:38:59;;;;;;;;;;;;;;;19.58;51.38;96425.13;1048197;28;1237;-52
2021/09/01 00:39:30;;;;;;;;;;;;;;;19.58;51.42;96422.50;1048608;28;1205;-52
2021/09/01 00:40:00;;;;;;;;;;;;;;;19.59;51.49;96427.50;1048479;28;1248;-54
2021/09/01 00:40:31;;;;;;;;;;;;;;;19.59;51.55;96424.06;1048686;28;1299;-55
2021/09/01 00:41:01;;;;;;;;;;;;;;;19.58;51.33;96420.66;1048167;28;1296;-52
2021/09/01 00:41:31;;;;;;;;;;;;;;;19.58;51.34;96425.91;1048588;28;1145;-52
2021/09/01 00:42:11;;;;;;;;;;;;;;;19.58;51.36;96425.13;1048507;28;1236;-52
2021/09/01 00:42:41;;;;;;;;;;;;;;;19.58;51.40;96420.66;1047341;28;2056;-52
2021/09/01 00:43:11;;;;;;;;;;;;;;;19.59;51.40;96426.72;1048356;28;1192;-53
2021/09/01 00:43:42;;;;;;;;;;;;;;;19.58;51.38;96422.50;1048503;28;1201;-53
2021/09/01 00:44:30;;;;;;;;;;;;;;;19.59;51.48;96424.06;1048565;28;1204;-52
2021/09/01 00:45:01;;;;;;;;;;;;;;;19.58;51.27;96419.88;1047708;28;1276;-51
2021/09/01 00:45:31;;;;;;;;;;;;;;;19.58;51.43;96420.66;1048595;28;1224;-55
2021/09/01 00:46:02;;;;;;;;;;;;;;;19.59;51.45;96426.72;1047774;28;1682;-56
2021/09/01 00:46:32;;;;;;;;;;;;;;;19.59;51.42;96426.72;1048486;28;1229;-53
2021/09/01 00:47:04;;;;;;;;;;;;;;;19.59;51.31;96426.72;1048306;28;1273;-52
2021/09/01 00:47:35;;;;;;;;;;;;;;;19.59;51.39;96421.44;1047459;28;2075;-55
2021/09/01 00:48:05;;;;;;;;;;;;;;;19.58;51.36;96417.25;1047073;28;2142;-49
2021/09/01 00:48:36;;;;;;;;;;;;;;;19.59;51.34;96421.44;1048354;28;1221;-53
2021/09/01 00:49:06;;;;;;;;;;;;;;;19.58;51.46;96425.13;1048268;28;1063;-53
2021/09/01 00:49:36;;;;;;;;;;;;;;;19.59;51.39;96424.88;1048020;28;2013;-53
2021/09/01 00:50:07;;;;;;;;;;;;;;;19.59;51.18;96429.34;1047990;28;1453;-53
2021/09/01 00:50:37;;;;;;;;;;;;;;;19.59;51.38;96427.50;1048546;28;1217;-53
2021/09/01 00:51:07;;;;;;;;;;;;;;;19.59;51.27;96426.72;1048300;28;1107;-51
2021/09/01 00:51:38;;;;;;;;;;;;;;;19.59;51.34;96426.72;1048373;28;1277;-50
2021/09/01 00:52:08;;;;;;;;;;;;;;;19.58;51.28;96427.75;1048388;28;1123;-53
2021/09/01 00:52:39;;;;;;;;;;;;;;;19.59;51.47;96431.97;1047440;28;2179;-53
2021/09/01 00:53:09;;;;;;;;;;;;;;;19.58;51.36;96431.16;1048380;28;1072;-54
2021/09/01 00:53:42;;;;;;;;;;;;;;;19.59;51.32;96429.34;1047908;28;1221;-53
2021/09/01 00:54:16;;;;;;;;;;;;;;;19.58;51.35;96430.41;1047656;28;1742;-54
2021/09/01 00:54:46;;;;;;;;;;;;;;;19.57;51.32;96434.84;1048064;28;1061;-54
2021/09/01 00:55:17;;;;;;;;;;;;;;;19.58;51.43;96427.75;1048162;28;1237;-53
2021/09/01 00:55:47;;;;;;;;;;;;;;;19.58;51.38;96433.03;1045763;28;2124;-53
2021/09/01 00:56:18;;;;;;;;;;;;;;;19.59;51.34;96429.34;1046932;28;2052;-54
2021/09/01 00:56:52;;;;;;;;;;;;;;;19.58;51.27;96430.41;1048034;28;1210;-54
2021/09/01 00:57:22;;;;;;;;;;;;;;;19.58;51.23;96431.16;1047999;28;1902;-53
2021/09/01 00:57:53;;;;;;;;;;;;;;;19.58;51.39;96425.13;1047145;28;2249;-53
2021/09/01 00:58:23;;;;;;;;;;;;;;;19.58;51.43;96427.75;1048155;28;1233;-53
2021/09/01 00:58:53;;;;;;;;;;;;;;;19.57;51.27;96428.78;1047926;28;1151;-52
2021/09/01 00:59:27;;;;;;;;;;;;;;;19.58;51.29;96425.13;1047960;28;1225;-54
2021/09/01 00:59:57;;;;;;;;;;;;;;;19.58;51.26;96420.66;1048465;28;1169;-54
2021/09/01 01:00:46;;;;;;;;;;;;;;;19.59;51.49;96424.06;1048503;28;1247;-54
2021/09/01 01:01:17;;;;;;;;;;;;;;;19.59;51.31;96426.72;1047492;28;1241;-55
2021/09/01 01:01:47;;;;;;;;;;;;;;;19.59;51.39;96429.34;1048161;28;1289;-52
2021/09/01 01:02:17;;;;;;;;;;;;;;;19.58;51.41;96425.91;1048314;28;1250;-52
2021/09/01 01:02:48;;;;;;;;;;;;;;;19.58;51.49;96428.53;1047201;28;2072;-54
2021/09/01 01:03:18;;;;;;;;;;;;;;;19.58;51.43;96428.53;1048631;28;1220;-55
2021/09/01 01:03:51;;;;;;;;;;;;;;;19.58;51.49;96433.78;1048344;28;1134;-53
2021/09/01 01:04:23;;;;;;;;;;;;;;;19.59;51.28;96426.72;1046727;28;1690;-52
2021/09/01 01:04:53;;;;;;;;;;;;;;;19.59;51.43;96429.34;1048431;28;1143;-53
2021/09/01 01:05:24;;;;;;;;;;;;;;;19.58;51.35;96431.16;1048679;28;1125;-52
2021/09/01 01:05:56;;;;;;;;;;;;;;;19.59;51.41;96426.72;1047658;28;1245;-53
2021/09/01 01:06:28;;;;;;;;;;;;;;;19.57;51.40;96426.97;1046488;28;3325;-51
2021/09/01 01:07:05;;;;;;;;;;;;;;;19.58;51.36;96436.44;1047362;28;3260;-52
2021/09/01 01:07:36;;;;;;;;;;;;;;;19.58;51.40;96425.13;1047322;28;2889;-52
2021/09/01 01:08:06;;;;;;;;;;;;;;;19.57;51.41;96428.78;1051100;28;1005;-52
2021/09/01 01:08:36;;;;;;;;;;;;;;;19.58;51.49;96431.16;1048060;28;2841;-50
2021/09/01 01:09:07;;;;;;;;;;;;;;;19.58;51.27;96430.41;1043992;28;1516;-51
2021/09/01 01:09:40;;;;;;;;;;;;;;;19.58;51.42;96425.13;1047932;28;1466;-51
2021/09/01 01:10:25;;;;;;;;;;;;;;;19.58;51.34;96427.75;1039927;28;1159;-54
2021/09/01 01:10:57;;;;;;;;;;;;;;;19.58;51.33;96427.75;1039125;28;2418;-52
2021/09/01 01:11:28;;;;;;;;;;;;;;;19.58;51.41;96430.41;1037442;28;1270;-51
2021/09/01 01:12:19;;;;;;;;;;;;;;;19.58;51.19;96431.16;1042445;28;1248;-52
2021/09/01 01:13:09;;;;;;;;;;;;;;;19.57;51.21;96429.59;1049074;28;940;-53
2021/09/01 01:13:58;;;;;;;;;;;;;;;19.58;51.39;96430.41;1049285;28;1162;-54
2021/09/01 01:14:29;;;;;;;;;;;;;;;19.59;51.41;96431.97;1049067;28;1228;-51
2021/09/01 01:14:59;;;;;;;;;;;;;;;19.58;51.35;96430.41;1048647;28;2322;-53
2021/09/01 01:15:30;;;;;;;;;;;;;;;19.58;51.43;96431.16;1047177;28;2444;-52
2021/09/01 01:16:00;;;;;;;;;;;;;;;19.58;51.36;96428.53;1047990;28;2100;-52
2021/09/01 01:16:31;;;;;;;;;;;;;;;19.58;51.42;96425.91;1044551;28;1486;-51
2021/09/01 01:17:02;;;;;;;;;;;;;;;19.59;51.29;96429.34;1044482;28;1933;-50
2021/09/01 01:17:35;;;;;;;;;;;;;;;19.59;51.42;96424.88;1039644;28;2208;-52
2021/09/01 01:18:09;;;;;;;;;;;;;;;19.58;51.42;96425.91;1041538;28;1113;-53
2021/09/01 01:18:45;;;;;;;;;;;;;;;19.58;51.32;96427.75;1041635;28;1262;-53
2021/09/01 01:19:42;;;;;;;;;;;;;;;19.58;51.32;96422.50;1047393;28;1251;-52
2021/09/01 01:20:14;;;;;;;;;;;;;;;19.58;51.48;96425.91;1048936;28;1040;-51
2021/09/01 01:21:04;;;;;;;;;;;;;;;19.58;51.47;96419.88;1048820;28;1141;-55
2021/09/01 01:21:56;;;;;;;;;;;;;;;19.58;51.43;96425.13;1048733;28;1232;-54
2021/09/01 01:22:27;;;;;;;;;;;;;;;19.58;51.49;96425.13;1054312;28;1315;-52
2021/09/01 01:22:58;;;;;;;;;;;;;;;19.58;51.46;96418.03;1056380;28;2014;-51
2021/09/01 01:23:29;;;;;;;;;;;;;;;19.58;51.34;96420.66;1056916;28;2344;-50
2021/09/01 01:24:05;;;;;;;;;;;;;;;19.58;51.49;96425.91;1052117;28;1601;-55
2021/09/01 01:24:58;;;;;;;;;;;;;;;19.58;51.42;96427.75;1050400;28;1472;-51
2021/09/01 01:25:40;;;;;;;;;;;;;;;19.58;51.27;96420.66;1047258;28;1986;-49
2021/09/01 01:26:11;;;;;;;;;;;;;;;19.57;51.28;96421.72;1053226;28;1122;-52
2021/09/01 01:26:41;;;;;;;;;;;;;;;19.58;51.36;96430.41;1053877;28;1248;-51
2021/09/01 01:27:21;;;;;;;;;;;;;;;19.58;51.29;96430.41;1052166;28;1185;-55
2021/09/01 01:27:52;;;;;;;;;;;;;;;19.58;51.48;96425.13;1049026;28;1134;-55
2021/09/01 01:28:22;;;;;;;;;;;;;;;19.59;51.27;96429.34;1049285;28;1318;-54
2021/09/01 01:28:56;;;;;;;;;;;;;;;19.58;51.50;96430.41;1048851;28;1162;-55
2021/09/01 01:29:27;;;;;;;;;;;;;;;19.58;51.28;96425.13;1049288;28;1283;-52
2021/09/01 01:29:58;;;;;;;;;;;;;;;19.58;51.40;96430.41;1049300;28;1276;-55
2021/09/01 01:30:28;;;;;;;;;;;;;;;19.58;51.26;96433.03;1049224;28;1276;-55
2021/09/01 01:30:59;;;;;;;;;;;;;;;19.58;51.49;96425.13;1048924;28;1252;-55
2021/09/01 01:31:29;;;;;;;;;;;;;;;19.57;51.33;96428.78;1046563;28;1883;-54
2021/09/01 01:31:59;;;;;;;;;;;;;;;19.57;51.48;96424.34;1048114;28;2017;-56
2021/09/01 01:32:30;;;;;;;;;;;;;;;19.56;51.41;96425.38;1048965;28;1362;-55
2021/09/01 01:33:00;;;;;;;;;;;;;;;19.58;51.31;96428.53;1048831;28;1287;-54
2021/09/01 01:33:30;;;;;;;;;;;;;;;19.58;51.44;96430.41;1049145;28;1304;-54
2021/09/01 01:34:01;;;;;;;;;;;;;;;19.58;51.28;96425.91;1049134;28;1225;-53
2021/09/01 01:34:31;;;;;;;;;;;;;;;19.58;51.39;96422.50;1049081;28;1217;-52
2021/09/01 01:35:01;;;;;;;;;;;;;;;19.58;51.34;96422.50;1048849;28;1204;-53
2021/09/01 01:35:35;;;;;;;;;;;;;;;19.58;51.35;96425.13;1049154;28;1228;-55
2021/09/01 01:36:05;;;;;;;;;;;;;;;19.57;51.37;96423.53;1049163;28;1284;-55
2021/09/01 01:36:36;;;;;;;;;;;;;;;19.58;51.33;96419.88;1048153;28;2269;-55
2021/09/01 01:37:07;;;;;;;;;;;;;;;19.58;51.46;96423.28;1048161;28;2564;-55
2021/09/01 01:37:40;;;;;;;;;;;;;;;19.59;51.25;96421.44;1047654;28;1669;-52
2021/09/01 01:38:12;;;;;;;;;;;;;;;19.58;51.31;96425.91;1048817;28;1158;-56
2021/09/01 01:38:43;;;;;;;;;;;;;;;19.58;51.46;96425.13;1047889;28;1769;-54
2021/09/01 01:39:13;;;;;;;;;;;;;;;19.58;51.38;96425.91;1046991;28;1194;-56
2021/09/01 01:39:43;;;;;;;;;;;;;;;19.58;51.42;96425.13;1048977;28;1216;-55
2021/09/01 01:40:14;;;;;;;;;;;;;;;19.57;51.36;96426.97;1049266;28;1278;-53
2021/09/01 01:40:45;;;;;;;;;;;;;;;19.57;51.42;96419.06;1047863;28;2364;-54
2021/09/01 01:41:15;;;;;;;;;;;;;;;19.58;51.38;96425.13;1047880;28;2066;-55
2021/09/01 01:41:46;;;;;;;;;;;;;;;19.59;51.29;96429.34;1048612;28;1217;-54
2021/09/01 01:42:16;;;;;;;;;;;;;;;19.58;51.27;96425.91;1048651;28;1422;-55
2021/09/01 01:42:46;;;;;;;;;;;;;;;19.58;51.32;96423.28;1048765;28;1123;-55
2021/09/01 01:43:16;;;;;;;;;;;;;;;19.59;51.25;96431.97;1048606;28;1228;-54
2021/09/01 01:43:47;;;;;;;;;;;;;;;19.58;51.36;96430.41;1049085;28;1063;-55
2021/09/01 01:44:17;;;;;;;;;;;;;;;19.58;51.32;96425.13;1049231;28;1169;-54
2021/09/01 01:44:48;;;;;;;;;;;;;;;19.57;51.36;96431.44;1048686;28;1084;-49
2021/09/01 01:45:18;;;;;;;;;;;;;;;19.58;51.39;96433.03;1048680;28;1217;-55
2021/09/01 01:45:48;;;;;;;;;;;;;;;19.58;51.35;96433.03;1048652;28;1139;-53
2021/09/01 01:46:19;;;;;;;;;;;;;;;19.58;51.47;96430.41;1047717;28;2109;-55
2021/09/01 01:46:49;;;;;;;;;;;;;;;19.59;51.46;96437.22;1047671;28;1590;-55
2021/09/01 01:47:19;;;;;;;;;;;;;;;19.59;51.43;96439.84;1048342;28;1603;-53
2021/09/01 01:47:50;;;;;;;;;;;;;;;19.57;51.40;96434.06;1043720;28;1218;-55
2021/09/01 01:48:20;;;;;;;;;;;;;;;19.58;51.33;96433.03;1048666;28;1384;-55
2021/09/01 01:48:51;;;;;;;;;;;;;;;19.58;51.34;96439.06;1047936;28;1238;-55
2021/09/01 01:49:21;;;;;;;;;;;;;;;19.58;51.31;96431.16;1048015;28;2061;-55
2021/09/01 01:49:51;;;;;;;;;;;;;;;19.57;51.41;96432.22;1052640;28;1372;-56
2021/09/01 01:50:22;;;;;;;;;;;;;;;19.58;51.21;96428.53;1048833;28;1071;-54
2021/09/01 01:50:52;;;;;;;;;;;;;;;19.58;51.23;96431.16;1048948;28;1194;-54
2021/09/01 01:51:22;;;;;;;;;;;;;;;19.57;51.25;96434.06;1048317;28;2225;-55
2021/09/01 01:51:53;;;;;;;;;;;;;;;19.56;51.36;96427.22;1048839;28;1115;-53
2021/09/01 01:52:23;;;;;;;;;;;;;;;19.57;51.27;96440.13;1048975;28;1308;-56
2021/09/01 01:52:54;;;;;;;;;;;;;;;19.57;51.44;96434.06;1049128;28;1106;-55
2021/09/01 01:53:24;;;;;;;;;;;;;;;19.58;51.31;96433.03;1049013;28;1267;-56
2021/09/01 01:53:54;;;;;;;;;;;;;;;19.58;51.31;96433.03;1048946;28;1205;-55
2021/09/01 01:54:24;;;;;;;;;;;;;;;19.57;51.35;96428.78;1049169;28;1303;-55
2021/09/01 01:54:55;;;;;;;;;;;;;;;19.58;51.10;96433.03;1049062;28;1181;-54
2021/09/01 01:55:25;;;;;;;;;;;;;;;19.58;51.21;96427.75;1049151;28;1417;-55
2021/09/01 01:55:55;;;;;;;;;;;;;;;19.57;51.36;96426.16;1048743;28;1094;-55
2021/09/01 01:56:25;;;;;;;;;;;;;;;19.59;51.46;96431.97;1047282;28;2032;-55
2021/09/01 01:56:56;;;;;;;;;;;;;;;19.58;51.40;96435.66;1048622;28;1162;-55
2021/09/01 01:57:26;;;;;;;;;;;;;;;19.58;51.48;96428.53;1045776;28;1971;-55
2021/09/01 01:57:56;;;;;;;;;;;;;;;19.58;51.56;96427.75;1048685;28;1222;-55
2021/09/01 01:58:27;;;;;;;;;;;;;;;19.59;51.23;96437.22;1047937;28;1485;-55
2021/09/01 01:58:57;;;;;;;;;;;;;;;19.58;51.33;96441.69;1049122;28;1204;-52
2021/09/01 01:59:27;;;;;;;;;;;;;;;19.58;51.28;96433.78;1049116;28;1209;-54
2021/09/01 01:59:58;;;;;;;;;;;;;;;19.58;51.38;96430.41;1048792;28;1153;-55
2021/09/01 02:00:28;;;;;;;;;;;;;;;19.58;51.40;96436.44;1049275;28;1245;-53
2021/09/01 02:00:58;;;;;;;;;;;;;;;19.58;51.46;96431.16;1049072;28;1051;-55
2021/09/01 02:01:29;;;;;;;;;;;;;;;19.58;51.24;96433.03;1047945;28;2025;-55
2021/09/01 02:01:59;;;;;;;;;;;;;;;19.58;51.42;96435.66;1048865;28;1232;-55
2021/09/01 02:02:30;;;;;;;;;;;;;;;19.58;51.50;96433.03;1048777;28;1304;-54
2021/09/01 02:03:01;;;;;;;;;;;;;;;19.57;51.37;96437.47;1049024;28;1304;-55
2021/09/01 02:03:31;;;;;;;;;;;;;;;19.58;51.36;96436.44;1049106;28;1269;-55
2021/09/01 02:04:02;;;;;;;;;;;;;;;19.58;51.40;96436.44;1049077;28;1260;-52
2021/09/01 02:04:32;;;;;;;;;;;;;;;19.57;51.48;96432.22;1049006;28;1232;-51
2021/09/01 02:05:02;;;;;;;;;;;;;;;19.57;51.36;96434.84;1049057;28;1303;-51
2021/09/01 02:05:33;;;;;;;;;;;;;;;19.57;51.35;96431.44;1049055;28;1221;-50
2021/09/01 02:06:03;;;;;;;;;;;;;;;19.58;51.28;96435.66;1047237;28;1560;-52
2021/09/01 02:06:33;;;;;;;;;;;;;;;19.58;51.35;96433.03;1047805;28;2132;-51
2021/09/01 02:07:04;;;;;;;;;;;;;;;19.58;51.41;96435.66;1049138;28;1263;-52
2021/09/01 02:07:34;;;;;;;;;;;;;;;19.57;51.27;96434.84;1047177;28;1638;-52
2021/09/01 02:08:05;;;;;;;;;;;;;;;19.58;51.18;96430.41;1048799;28;1320;-54
2021/09/01 02:08:35;;;;;;;;;;;;;;;19.59;51.37;96430.13;1048439;28;1080;-49
2021/09/01 02:09:05;;;;;;;;;;;;;;;19.58;51.19;96431.16;1048572;28;1292;-50
2021/09/01 02:09:36;;;;;;;;;;;;;;;19.59;51.45;96429.34;1048859;28;1209;-55
2021/09/01 02:10:06;;;;;;;;;;;;;;;19.58;51.32;96428.53;1049015;28;1291;-56
2021/09/01 02:10:37;;;;;;;;;;;;;;;19.58;51.33;96431.16;1048894;28;1185;-54
2021/09/01 02:11:07;;;;;;;;;;;;;;;19.59;51.32;96426.72;1049169;28;1127;-56
2021/09/01 02:11:37;;;;;;;;;;;;;;;19.58;51.38;96427.75;1047882;28;2163;-55
2021/09/01 02:12:07;;;;;;;;;;;;;;;19.59;51.39;96424.88;1049026;28;1401;-53
2021/09/01 02:12:38;;;;;;;;;;;;;;;19.59;51.46;96424.06;1048848;28;1271;-55
2021/09/01 02:13:08;;;;;;;;;;;;;;;19.58;51.27;96427.75;1048975;28;1135;-55
2021/09/01 02:13:39;;;;;;;;;;;;;;;19.58;51.32;96425.13;1049068;28;1233;-51
2021/09/01 02:14:09;;;;;;;;;;;;;;;19.58;51.11;96425.91;1049047;28;1108;-51
2021/09/01 02:14:39;;;;;;;;;;;;;;;19.58;51.31;96431.16;1047456;28;2049;-51
2021/09/01 02:15:10;;;;;;;;;;;;;;;19.58;51.50;96428.53;1049032;28;1136;-54
2021/09/01 02:15:40;;;;;;;;;;;;;;;19.57;51.20;96424.34;1048849;28;1268;-52
2021/09/01 02:16:10;;;;;;;;;;;;;;;19.58;51.31;96431.16;1047778;28;1766;-51
2021/09/01 02:16:41;;;;;;;;;;;;;;;19.58;51.20;96425.91;1046805;28;2201;-54
2021/09/01 02:17:11;;;;;;;;;;;;;;;19.58;51.25;96425.91;1048980;28;1897;-49
2021/09/01 02:17:42;;;;;;;;;;;;;;;19.59;51.28;96426.72;1048937;28;1196;-53
2021/09/01 02:18:12;;;;;;;;;;;;;;;19.58;51.27;96431.16;1048643;28;1582;-53
2021/09/01 02:18:42;;;;;;;;;;;;;;;19.58;51.06;96425.91;1048188;28;1301;-53
2021/09/01 02:19:13;;;;;;;;;;;;;;;19.58;51.24;96425.13;1048687;28;1216;-49
2021/09/01 02:19:43;;;;;;;;;;;;;;;19.58;51.43;96425.91;1048606;28;1312;-52
2021/09/01 02:20:13;;;;;;;;;;;;;;;19.57;51.40;96426.97;1049183;28;1275;-54
2021/09/01 02:20:44;;;;;;;;;;;;;;;19.58;51.32;96428.53;1048762;28;1263;-53
2021/09/01 02:21:14;;;;;;;;;;;;;;;19.57;51.24;96424.34;1049058;28;1216;-53
2021/09/01 02:21:44;;;;;;;;;;;;;;;19.58;51.34;96430.41;1047632;28;2195;-53
2021/09/01 02:22:15;;;;;;;;;;;;;;;19.57;51.34;96428.78;1048947;28;1271;-53
2021/09/01 02:22:47;;;;;;;;;;;;;;;19.58;51.25;96435.66;1048805;28;1315;-54
2021/09/01 02:23:17;;;;;;;;;;;;;;;19.57;51.35;96429.59;1048376;28;1063;-51
2021/09/01 02:23:48;;;;;;;;;;;;;;;19.58;51.32;96438.28;1048994;28;1004;-54
2021/09/01 02:24:18;;;;;;;;;;;;;;;19.58;51.27;96438.28;1048178;28;1820;-52
2021/09/01 02:24:48;;;;;;;;;;;;;;;19.58;51.19;96435.66;1048429;28;1127;-55
2021/09/01 02:25:18;;;;;;;;;;;;;;;19.57;51.24;96434.06;1048485;28;1217;-53
2021/09/01 02:25:49;;;;;;;;;;;;;;;19.58;51.25;96435.66;1047534;28;2029;-52
2021/09/01 02:26:19;;;;;;;;;;;;;;;19.58;51.29;96438.28;1049022;28;1283;-52
2021/09/01 02:26:49;;;;;;;;;;;;;;;19.58;51.18;96435.66;1047871;28;2060;-53
2021/09/01 02:27:20;;;;;;;;;;;;;;;19.57;51.21;96434.84;1048661;28;1259;-54
2021/09/01 02:27:50;;;;;;;;;;;;;;;19.58;51.26;96438.28;1048970;28;1064;-52
2021/09/01 02:28:20;;;;;;;;;;;;;;;19.58;51.41;96436.44;1049004;28;1240;-52
2021/09/01 02:28:50;;;;;;;;;;;;;;;19.57;51.37;96439.31;1048893;28;1170;-55
2021/09/01 02:29:21;;;;;;;;;;;;;;;19.57;51.46;96442.75;1048736;28;1244;-54
2021/09/01 02:29:51;;;;;;;;;;;;;;;19.58;51.49;96446.19;1048842;28;1217;-51
2021/09/01 02:30:22;;;;;;;;;;;;;;;19.57;51.26;96442.75;1049173;28;1248;-51
2021/09/01 02:30:53;;;;;;;;;;;;;;;19.57;51.37;96440.13;1048882;28;1169;-50
2021/09/01 02:31:24;;;;;;;;;;;;;;;19.58;51.17;96440.91;1048705;28;1086;-54
2021/09/01 02:31:54;;;;;;;;;;;;;;;19.57;51.35;96440.13;1047341;28;2050;-49
2021/09/01 02:32:24;;;;;;;;;;;;;;;19.57;51.28;96442.75;1048957;28;1323;-53
2021/09/01 02:32:54;;;;;;;;;;;;;;;19.58;51.36;96446.19;1048826;28;1159;-52
2021/09/01 02:33:25;;;;;;;;;;;;;;;19.58;51.36;96443.53;1048747;28;1299;-52
2021/09/01 02:33:55;;;;;;;;;;;;;;;19.57;51.46;96440.13;1048977;28;1209;-53
2021/09/01 02:34:25;;;;;;;;;;;;;;;19.57;51.22;96444.56;1048967;28;1323;-53
2021/09/01 02:34:56;;;;;;;;;;;;;;;19.57;51.30;96436.69;1048421;28;1327;-52
2021/09/01 02:35:26;;;;;;;;;;;;;;;19.57;51.34;96444.56;1048356;28;1233;-55
2021/09/01 02:35:56;;;;;;;;;;;;;;;19.57;51.29;96440.13;1048481;28;1190;-52
2021/09/01 02:36:27;;;;;;;;;;;;;;;19.58;51.40;96451.44;1048511;28;1414;-50
2021/09/01 02:36:57;;;;;;;;;;;;;;;19.58;51.33;96446.19;1048035;28;2061;-51
2021/09/01 02:37:27;;;;;;;;;;;;;;;19.58;51.20;96443.53;1047073;28;2000;-51
2021/09/01 02:37:57;;;;;;;;;;;;;;;19.58;51.19;96446.19;1048885;28;1280;-50
2021/09/01 02:38:28;;;;;;;;;;;;;;;19.58;51.18;96440.91;1048839;28;1130;-55
2021/09/01 02:38:58;;;;;;;;;;;;;;;19.58;51.35;96440.91;1047878;28;2204;-54
2021/09/01 02:39:28;;;;;;;;;;;;;;;19.58;51.43;96446.19;1047604;28;2138;-55
2021/09/01 02:39:59;;;;;;;;;;;;;;;19.57;51.33;96439.31;1048719;28;1116;-55
2021/09/01 02:40:29;;;;;;;;;;;;;;;19.58;51.18;96438.28;1049023;28;1253;-54
2021/09/01 02:40:59;;;;;;;;;;;;;;;19.58;51.42;96444.31;1048702;28;1177;-52
2021/09/01 02:41:29;;;;;;;;;;;;;;;19.58;51.42;96435.66;1047773;28;2293;-53
2021/09/01 02:42:00;;;;;;;;;;;;;;;19.58;51.20;96440.91;1047316;28;2130;-53
2021/09/01 02:42:31;;;;;;;;;;;;;;;19.59;51.25;96437.22;1048889;28;1292;-54
2021/09/01 02:43:01;;;;;;;;;;;;;;;19.58;51.39;96438.28;1049013;28;1256;-50
2021/09/01 02:43:31;;;;;;;;;;;;;;;19.58;51.13;96435.66;1048992;28;1154;-50
2021/09/01 02:44:02;;;;;;;;;;;;;;;19.58;51.34;96436.44;1048765;28;1248;-49
2021/09/01 02:44:32;;;;;;;;;;;;;;;19.58;51.25;96435.66;1049008;28;1267;-53
2021/09/01 02:45:02;;;;;;;;;;;;;;;19.57;51.28;96429.59;1048498;28;1516;-50
2021/09/01 02:45:33;;;;;;;;;;;;;;;19.58;51.29;96436.44;1047338;28;1028;-51
2021/09/01 02:46:03;;;;;;;;;;;;;;;19.58;51.32;96438.28;1048041;28;1402;-53
2021/09/01 02:46:33;;;;;;;;;;;;;;;19.58;51.25;96443.53;1048151;28;2046;-52
2021/09/01 02:47:04;;;;;;;;;;;;;;;19.59;51.40;96440.66;1044143;28;1438;-53
2021/09/01 02:47:34;;;;;;;;;;;;;;;19.58;51.32;96438.28;1044304;28;1048;-50
2021/09/01 02:48:04;;;;;;;;;;;;;;;19.58;51.36;96440.91;1047555;28;2194;-51
2021/09/01 02:48:35;;;;;;;;;;;;;;;19.59;51.33;96442.50;1047700;28;2103;-54